createdAt,value
2019-01-24T00:00:35.110Z,792.61
2019-01-24T00:01:35.108Z,792.65
2019-01-24T00:02:35.103Z,792.62
2019-01-24T00:03:35.104Z,792.66
2019-01-24T00:04:35.105Z,792.65
2019-01-24T00:05:35.104Z,792.68
2019-01-24T00:06:35.108Z,792.69
2019-01-24T00:07:35.105Z,792.70
2019-01-24T00:08:35.106Z,792.70
2019-01-24T00:09:35.106Z,792.72
2019-01-24T00:10:35.106Z,792.72
2019-01-24T00:11:35.108Z,792.71
2019-01-24T00:12:35.107Z,792.69
2019-01-24T00:13:35.106Z,792.72
2019-01-24T00:14:35.105Z,792.67
2019-01-24T00:15:35.106Z,792.74
2019-01-24T00:16:35.106Z,792.73
2019-01-24T00:17:35.109Z,792.76
2019-01-24T00:18:35.109Z,792.73
2019-01-24T00:19:35.109Z,792.71
2019-01-24T00:20:35.106Z,792.75
2019-01-24T00:21:35.109Z,792.79
2019-01-24T00:22:35.108Z,792.83
2019-01-24T00:23:35.108Z,792.80
2019-01-24T00:24:35.111Z,792.85
2019-01-24T00:25:35.109Z,792.86
2019-01-24T00:26:35.110Z,792.83
2019-01-24T00:27:35.109Z,792.83
2019-01-24T00:28:35.108Z,792.84
2019-01-24T00:29:35.111Z,792.85
2019-01-24T00:30:35.116Z,792.82
2019-01-24T00:31:35.108Z,792.85
2019-01-24T00:32:35.109Z,792.83
2019-01-24T00:33:35.110Z,792.89
2019-01-24T00:34:35.110Z,792.90
2019-01-24T00:35:35.109Z,792.91
2019-01-24T00:36:35.108Z,792.91
2019-01-24T00:37:35.113Z,792.96
2019-01-24T00:38:35.109Z,792.97
2019-01-24T00:39:35.113Z,792.98
2019-01-24T00:40:35.116Z,792.97
2019-01-24T00:41:35.110Z,793.00
2019-01-24T00:42:35.110Z,793.00
2019-01-24T00:43:35.109Z,793.02
2019-01-24T00:44:35.111Z,792.99
2019-01-24T00:45:35.112Z,793.02
2019-01-24T00:46:35.109Z,793.03
2019-01-24T00:47:35.110Z,793.04
2019-01-24T00:48:35.112Z,793.03
2019-01-24T00:49:35.110Z,793.06
2019-01-24T00:50:35.110Z,793.07
2019-01-24T00:51:35.111Z,793.07
2019-01-24T00:52:35.114Z,793.12
2019-01-24T00:53:35.115Z,793.09
2019-01-24T00:54:35.110Z,793.11
2019-01-24T00:55:35.113Z,793.13
2019-01-24T00:56:35.115Z,793.16
2019-01-24T00:57:35.111Z,793.14
2019-01-24T00:58:35.117Z,793.17
2019-01-24T00:59:35.111Z,793.19
2019-01-24T01:00:35.113Z,793.16
2019-01-24T01:01:35.111Z,793.20
2019-01-24T01:02:35.111Z,793.20
2019-01-24T01:03:35.112Z,793.23
2019-01-24T01:04:35.115Z,793.23
2019-01-24T01:05:35.112Z,793.24
2019-01-24T01:06:35.113Z,793.24
2019-01-24T01:07:35.112Z,793.25
2019-01-24T01:08:35.111Z,793.27
2019-01-24T01:09:35.115Z,793.27
2019-01-24T01:10:35.112Z,793.30
2019-01-24T01:11:35.111Z,793.30
2019-01-24T01:12:35.112Z,793.31
2019-01-24T01:13:35.114Z,793.34
2019-01-24T01:14:35.110Z,793.35
2019-01-24T01:15:35.112Z,793.36
2019-01-24T01:16:35.110Z,793.37
2019-01-24T01:17:35.111Z,793.38
2019-01-24T01:18:35.112Z,793.40
2019-01-24T01:19:35.109Z,793.41
2019-01-24T01:20:35.114Z,793.41
2019-01-24T01:21:35.113Z,793.43
2019-01-24T01:22:35.109Z,793.41
2019-01-24T01:23:35.113Z,793.48
2019-01-24T01:24:35.109Z,793.45
2019-01-24T01:25:35.110Z,793.44
2019-01-24T01:26:35.110Z,793.43
2019-01-24T01:27:35.115Z,793.48
2019-01-24T01:28:35.111Z,793.53
2019-01-24T01:29:35.107Z,793.49
2019-01-24T01:30:35.111Z,793.53
2019-01-24T01:31:35.108Z,793.51
2019-01-24T01:32:35.108Z,793.55
2019-01-24T01:33:35.110Z,793.53
2019-01-24T01:34:36.383Z,793.57
2019-01-24T01:35:35.107Z,793.57
2019-01-24T01:36:35.109Z,793.57
2019-01-24T01:37:35.108Z,793.57
2019-01-24T01:38:35.109Z,793.59
2019-01-24T01:39:35.108Z,793.60
2019-01-24T01:40:35.105Z,793.61
2019-01-24T01:41:35.110Z,793.60
2019-01-24T01:42:35.106Z,793.62
2019-01-24T01:43:35.105Z,793.66
2019-01-24T01:44:35.106Z,793.67
2019-01-24T01:45:35.107Z,793.69
2019-01-24T01:46:35.108Z,793.67
2019-01-24T01:47:35.105Z,793.71
2019-01-24T01:48:35.106Z,793.72
2019-01-24T01:49:35.106Z,793.68
2019-01-24T01:50:35.104Z,793.77
2019-01-24T01:51:35.104Z,793.72
2019-01-24T01:52:35.104Z,793.72
2019-01-24T01:53:35.105Z,793.77
2019-01-24T01:54:35.106Z,793.73
2019-01-24T01:55:35.128Z,793.74
2019-01-24T01:56:35.106Z,793.77
2019-01-24T01:57:35.103Z,793.74
2019-01-24T01:58:35.105Z,793.78
2019-01-24T01:59:35.104Z,793.76
2019-01-24T02:00:35.125Z,793.76
2019-01-24T02:01:35.104Z,793.80
2019-01-24T02:02:35.104Z,793.80
2019-01-24T02:03:35.100Z,793.78
2019-01-24T02:04:35.105Z,793.83
2019-01-24T02:05:35.103Z,793.86
2019-01-24T02:06:35.108Z,793.83
2019-01-24T02:07:35.102Z,793.82
2019-01-24T02:08:35.098Z,793.84
2019-01-24T02:09:35.098Z,793.86
2019-01-24T02:10:35.099Z,793.86
2019-01-24T02:11:35.099Z,793.84
2019-01-24T02:12:35.095Z,793.92
2019-01-24T02:13:35.097Z,793.88
2019-01-24T02:14:35.098Z,793.88
2019-01-24T02:15:35.094Z,793.95
2019-01-24T02:16:35.095Z,793.96
2019-01-24T02:17:35.099Z,793.92
2019-01-24T02:18:35.091Z,793.95
2019-01-24T02:19:35.091Z,793.98
2019-01-24T02:20:35.094Z,793.98
2019-01-24T02:21:35.090Z,794.01
2019-01-24T02:22:35.090Z,794.00
2019-01-24T02:23:35.088Z,794.01
2019-01-24T02:24:35.087Z,794.00
2019-01-24T02:25:35.089Z,794.02
2019-01-24T02:26:35.088Z,794.05
2019-01-24T02:27:35.086Z,794.03
2019-01-24T02:28:35.087Z,794.05
2019-01-24T02:29:35.087Z,794.04
2019-01-24T02:30:35.084Z,794.03
2019-01-24T02:31:35.082Z,794.03
2019-01-24T02:32:35.085Z,794.06
2019-01-24T02:33:35.084Z,794.09
2019-01-24T02:34:35.081Z,794.12
2019-01-24T02:35:35.082Z,794.12
2019-01-24T02:36:35.081Z,794.14
2019-01-24T02:37:35.081Z,794.12
2019-01-24T02:38:35.081Z,794.16
2019-01-24T02:39:35.077Z,794.12
2019-01-24T02:40:35.077Z,794.17
2019-01-24T02:41:35.078Z,794.13
2019-01-24T02:42:35.079Z,794.16
2019-01-24T02:43:35.077Z,794.20
2019-01-24T02:44:35.076Z,794.22
2019-01-24T02:45:35.075Z,794.22
2019-01-24T02:46:35.075Z,794.20
2019-01-24T02:47:35.074Z,794.20
2019-01-24T02:48:35.073Z,794.23
2019-01-24T02:49:35.071Z,794.23
2019-01-24T02:50:35.072Z,794.19
2019-01-24T02:51:35.077Z,794.23
2019-01-24T02:52:35.069Z,794.25
2019-01-24T02:53:35.071Z,794.24
2019-01-24T02:54:35.071Z,794.24
2019-01-24T02:55:35.068Z,794.28
2019-01-24T02:56:35.067Z,794.30
2019-01-24T02:57:35.069Z,794.31
2019-01-24T02:58:35.068Z,794.35
2019-01-24T02:59:35.066Z,794.31
2019-01-24T03:00:35.063Z,794.34
2019-01-24T03:01:35.064Z,794.35
2019-01-24T03:02:35.073Z,794.31
2019-01-24T03:03:35.066Z,794.31
2019-01-24T03:04:35.064Z,794.30
2019-01-24T03:05:35.064Z,794.26
2019-01-24T03:06:35.065Z,794.31
2019-01-24T03:07:35.062Z,794.28
2019-01-24T03:08:35.063Z,794.24
2019-01-24T03:09:35.061Z,794.26
2019-01-24T03:10:35.058Z,794.29
2019-01-24T03:11:35.062Z,794.27
2019-01-24T03:12:35.056Z,794.30
2019-01-24T03:13:35.063Z,794.30
2019-01-24T03:14:35.058Z,794.32
2019-01-24T03:15:35.052Z,794.32
2019-01-24T03:16:35.052Z,794.33
2019-01-24T03:17:35.052Z,794.30
2019-01-24T03:18:35.051Z,794.32
2019-01-24T03:19:35.051Z,794.27
2019-01-24T03:20:35.047Z,794.33
2019-01-24T03:21:35.050Z,794.35
2019-01-24T03:22:35.049Z,794.33
2019-01-24T03:23:35.045Z,794.33
2019-01-24T03:24:35.044Z,794.38
2019-01-24T03:25:35.043Z,794.38
2019-01-24T03:26:35.049Z,794.36
2019-01-24T03:27:35.043Z,794.36
2019-01-24T03:28:35.042Z,794.32
2019-01-24T03:29:35.040Z,794.31
2019-01-24T03:30:35.040Z,794.35
2019-01-24T03:31:35.040Z,794.36
2019-01-24T03:32:35.042Z,794.35
2019-01-24T03:33:35.037Z,794.40
2019-01-24T03:34:35.036Z,794.39
2019-01-24T03:35:35.038Z,794.45
2019-01-24T03:36:35.034Z,794.41
2019-01-24T03:37:35.033Z,794.43
2019-01-24T03:38:35.033Z,794.39
2019-01-24T03:39:35.031Z,794.43
2019-01-24T03:40:35.031Z,794.44
2019-01-24T03:41:35.031Z,794.44
2019-01-24T03:42:35.031Z,794.43
2019-01-24T03:43:35.027Z,794.43
2019-01-24T03:44:35.027Z,794.45
2019-01-24T03:45:35.025Z,794.46
2019-01-24T03:46:35.025Z,794.48
2019-01-24T03:47:35.024Z,794.52
2019-01-24T03:48:35.022Z,794.50
2019-01-24T03:49:35.022Z,794.51
2019-01-24T03:50:35.033Z,794.54
2019-01-24T03:51:35.019Z,794.55
2019-01-24T03:52:35.019Z,794.52
2019-01-24T03:53:35.017Z,794.57
2019-01-24T03:54:35.015Z,794.54
2019-01-24T03:55:35.013Z,794.54
2019-01-24T03:56:35.019Z,794.53
2019-01-24T03:57:35.016Z,794.52
2019-01-24T03:58:35.011Z,794.51
2019-01-24T03:59:35.009Z,794.59
2019-01-24T04:00:35.010Z,794.56
2019-01-24T04:01:35.009Z,794.56
2019-01-24T04:02:35.009Z,794.58
2019-01-24T04:03:35.007Z,794.57
2019-01-24T04:04:35.013Z,794.61
2019-01-24T04:05:35.006Z,794.63
2019-01-24T04:06:35.006Z,794.63
2019-01-24T04:07:35.001Z,794.60
2019-01-24T04:08:35.004Z,794.60
2019-01-24T04:09:35.003Z,794.64
2019-01-24T04:10:35.002Z,794.64
2019-01-24T04:11:35.000Z,794.59
2019-01-24T04:12:34.999Z,794.66
2019-01-24T04:13:34.995Z,794.65
2019-01-24T04:14:34.995Z,794.62
2019-01-24T04:15:34.997Z,794.65
2019-01-24T04:16:34.992Z,794.63
2019-01-24T04:17:34.993Z,794.67
2019-01-24T04:18:34.991Z,794.68
2019-01-24T04:19:34.990Z,794.68
2019-01-24T04:20:34.988Z,794.67
2019-01-24T04:21:34.987Z,794.63
2019-01-24T04:22:34.998Z,794.65
2019-01-24T04:23:34.983Z,794.70
2019-01-24T04:24:34.983Z,794.69
2019-01-24T04:25:34.981Z,794.68
2019-01-24T04:26:34.981Z,794.68
2019-01-24T04:27:34.982Z,794.69
2019-01-24T04:28:34.978Z,794.69
2019-01-24T04:29:34.978Z,794.70
2019-01-24T04:30:34.976Z,794.69
2019-01-24T04:31:34.972Z,794.71
2019-01-24T04:32:34.972Z,794.68
2019-01-24T04:33:34.981Z,794.71
2019-01-24T04:34:34.972Z,794.74
2019-01-24T04:35:34.970Z,794.76
2019-01-24T04:36:34.968Z,794.72
2019-01-24T04:37:34.969Z,794.70
2019-01-24T04:38:34.970Z,794.74
2019-01-24T04:39:34.964Z,794.74
2019-01-24T04:40:34.962Z,794.75
2019-01-24T04:41:34.963Z,794.72
2019-01-24T04:42:34.960Z,794.77
2019-01-24T04:43:34.963Z,794.78
2019-01-24T04:44:34.960Z,794.79
2019-01-24T04:45:34.957Z,794.78
2019-01-24T04:46:34.958Z,794.78
2019-01-24T04:47:34.953Z,794.80
2019-01-24T04:48:34.954Z,794.79
2019-01-24T04:49:34.951Z,794.80
2019-01-24T04:50:34.951Z,794.79
2019-01-24T04:51:34.948Z,794.82
2019-01-24T04:52:34.948Z,794.87
2019-01-24T04:53:34.946Z,794.87
2019-01-24T04:54:34.948Z,794.84
2019-01-24T04:55:34.943Z,794.89
2019-01-24T04:56:34.945Z,794.90
2019-01-24T04:57:34.945Z,794.93
2019-01-24T04:58:34.941Z,794.94
2019-01-24T04:59:34.939Z,794.93
2019-01-24T05:00:34.939Z,794.97
2019-01-24T05:01:34.937Z,794.96
2019-01-24T05:02:34.933Z,794.94
2019-01-24T05:03:34.933Z,794.95
2019-01-24T05:04:34.931Z,794.96
2019-01-24T05:05:34.934Z,794.97
2019-01-24T05:06:34.929Z,794.96
2019-01-24T05:07:34.924Z,795.01
2019-01-24T05:08:34.926Z,795.02
2019-01-24T05:09:34.922Z,794.99
2019-01-24T05:10:34.919Z,794.99
2019-01-24T05:11:34.925Z,794.96
2019-01-24T05:12:34.917Z,795.01
2019-01-24T05:13:34.918Z,795.00
2019-01-24T05:14:34.918Z,795.04
2019-01-24T05:15:34.914Z,795.02
2019-01-24T05:16:34.912Z,795.00
2019-01-24T05:17:34.926Z,795.00
2019-01-24T05:18:34.909Z,795.04
2019-01-24T05:19:34.909Z,795.07
2019-01-24T05:20:34.916Z,795.09
2019-01-24T05:21:34.910Z,795.05
2019-01-24T05:22:34.909Z,795.12
2019-01-24T05:23:34.901Z,795.13
2019-01-24T05:24:34.902Z,795.10
2019-01-24T05:25:34.902Z,795.15
2019-01-24T05:26:34.899Z,795.15
2019-01-24T05:27:34.903Z,795.20
2019-01-24T05:28:34.895Z,795.24
2019-01-24T05:29:34.894Z,795.24
2019-01-24T05:30:34.895Z,795.22
2019-01-24T05:31:34.891Z,795.23
2019-01-24T05:32:34.891Z,795.24
2019-01-24T05:33:34.888Z,795.25
2019-01-24T05:34:34.891Z,795.25
2019-01-24T05:35:35.158Z,795.28
2019-01-24T05:36:34.885Z,795.28
2019-01-24T05:37:34.886Z,795.29
2019-01-24T05:38:34.890Z,795.29
2019-01-24T05:39:34.887Z,795.31
2019-01-24T05:40:34.881Z,795.32
2019-01-24T05:41:34.883Z,795.31
2019-01-24T05:42:34.877Z,795.27
2019-01-24T05:43:34.880Z,795.33
2019-01-24T05:44:34.876Z,795.26
2019-01-24T05:45:34.874Z,795.29
2019-01-24T05:46:34.879Z,795.32
2019-01-24T05:47:34.870Z,795.31
2019-01-24T05:48:34.870Z,795.25
2019-01-24T05:49:34.870Z,795.30
2019-01-24T05:50:34.873Z,795.31
2019-01-24T05:51:34.865Z,795.32
2019-01-24T05:52:34.865Z,795.36
2019-01-24T05:53:34.868Z,795.35
2019-01-24T05:54:34.862Z,795.37
2019-01-24T05:55:34.865Z,795.34
2019-01-24T05:56:34.862Z,795.34
2019-01-24T05:57:34.861Z,795.38
2019-01-24T05:58:34.859Z,795.40
2019-01-24T05:59:34.856Z,795.36
2019-01-24T06:00:34.852Z,795.38
2019-01-24T06:01:34.857Z,795.41
2019-01-24T06:02:34.852Z,795.42
2019-01-24T06:03:34.851Z,795.46
2019-01-24T06:04:34.854Z,795.48
2019-01-24T06:05:41.574Z,795.48
2019-01-24T06:06:34.856Z,795.52
2019-01-24T06:07:34.848Z,795.52
2019-01-24T06:08:34.851Z,795.56
2019-01-24T06:09:34.846Z,795.55
2019-01-24T06:10:34.848Z,795.59
2019-01-24T06:11:34.846Z,795.58
2019-01-24T06:12:34.840Z,795.60
2019-01-24T06:13:34.840Z,795.57
2019-01-24T06:14:34.841Z,795.63
2019-01-24T06:15:34.838Z,795.57
2019-01-24T06:16:34.845Z,795.59
2019-01-24T06:17:34.840Z,795.66
2019-01-24T06:18:34.842Z,795.64
2019-01-24T06:19:34.837Z,795.64
2019-01-24T06:20:34.837Z,795.67
2019-01-24T06:21:34.833Z,795.67
2019-01-24T06:22:34.834Z,795.70
2019-01-24T06:23:34.844Z,795.71
2019-01-24T06:24:34.833Z,795.73
2019-01-24T06:25:34.835Z,795.73
2019-01-24T06:26:34.834Z,795.76
2019-01-24T06:27:34.826Z,795.78
2019-01-24T06:28:34.830Z,795.77
2019-01-24T06:29:34.826Z,795.76
2019-01-24T06:30:34.827Z,795.79
2019-01-24T06:31:34.828Z,795.81
2019-01-24T06:32:34.822Z,795.79
2019-01-24T06:33:34.824Z,795.80
2019-01-24T06:34:34.823Z,795.79
2019-01-24T06:35:34.824Z,795.82
2019-01-24T06:36:34.817Z,795.84
2019-01-24T06:37:34.817Z,795.88
2019-01-24T06:38:34.816Z,795.90
2019-01-24T06:39:34.814Z,795.89
2019-01-24T06:40:34.812Z,795.90
2019-01-24T06:41:34.812Z,795.92
2019-01-24T06:42:34.812Z,795.91
2019-01-24T06:43:34.809Z,795.95
2019-01-24T06:44:34.805Z,795.97
2019-01-24T06:45:34.805Z,795.96
2019-01-24T06:46:34.806Z,795.95
2019-01-24T06:47:34.802Z,795.99
2019-01-24T06:48:34.802Z,795.98
2019-01-24T06:49:34.802Z,796.03
2019-01-24T06:50:34.799Z,796.04
2019-01-24T06:51:34.799Z,796.09
2019-01-24T06:52:34.798Z,796.06
2019-01-24T06:53:34.797Z,796.12
2019-01-24T06:54:34.797Z,796.11
2019-01-24T06:55:34.794Z,796.13
2019-01-24T06:56:34.793Z,796.08
2019-01-24T06:57:34.791Z,796.04
2019-01-24T06:58:34.793Z,796.07
2019-01-24T06:59:34.789Z,796.09
2019-01-24T07:00:34.786Z,796.12
2019-01-24T07:01:34.788Z,796.11
2019-01-24T07:02:34.788Z,796.11
2019-01-24T07:03:34.784Z,796.13
2019-01-24T07:04:34.783Z,796.15
2019-01-24T07:05:34.784Z,796.15
2019-01-24T07:06:34.784Z,796.16
2019-01-24T07:07:34.779Z,796.18
2019-01-24T07:08:34.778Z,796.18
2019-01-24T07:09:34.779Z,796.18
2019-01-24T07:10:34.779Z,796.19
2019-01-24T07:11:34.776Z,796.22
2019-01-24T07:12:34.778Z,796.20
2019-01-24T07:13:34.775Z,796.21
2019-01-24T07:14:34.778Z,796.21
2019-01-24T07:15:34.774Z,796.23
2019-01-24T07:16:34.775Z,796.27
2019-01-24T07:17:34.772Z,796.30
2019-01-24T07:18:34.771Z,796.28
2019-01-24T07:19:34.768Z,796.32
2019-01-24T07:20:34.769Z,796.38
2019-01-24T07:21:34.772Z,796.40
2019-01-24T07:22:34.772Z,796.42
2019-01-24T07:23:34.767Z,796.41
2019-01-24T07:24:34.767Z,796.48
2019-01-24T07:25:34.768Z,796.44
2019-01-24T07:26:34.766Z,796.46
2019-01-24T07:27:34.762Z,796.48
2019-01-24T07:28:34.766Z,796.48
2019-01-24T07:29:34.762Z,796.51
2019-01-24T07:30:34.764Z,796.48
2019-01-24T07:31:34.762Z,796.52
2019-01-24T07:32:34.764Z,796.55
2019-01-24T07:33:34.761Z,796.51
2019-01-24T07:34:34.762Z,796.53
2019-01-24T07:35:34.760Z,796.57
2019-01-24T07:36:34.772Z,796.56
2019-01-24T07:37:34.758Z,796.58
2019-01-24T07:38:34.759Z,796.58
2019-01-24T07:39:34.756Z,796.60
2019-01-24T07:40:34.757Z,796.61
2019-01-24T07:41:34.759Z,796.63
2019-01-24T07:42:34.756Z,796.63
2019-01-24T07:43:34.754Z,796.67
2019-01-24T07:44:34.756Z,796.69
2019-01-24T07:45:34.756Z,796.69
2019-01-24T07:46:34.752Z,796.70
2019-01-24T07:47:34.754Z,796.70
2019-01-24T07:48:34.754Z,796.67
2019-01-24T07:49:34.751Z,796.70
2019-01-24T07:50:34.752Z,796.69
2019-01-24T07:51:34.754Z,796.70
2019-01-24T07:52:34.749Z,796.72
2019-01-24T07:53:34.753Z,796.72
2019-01-24T07:54:34.765Z,796.74
2019-01-24T07:55:34.747Z,796.70
2019-01-24T07:56:34.749Z,796.79
2019-01-24T07:57:34.751Z,796.77
2019-01-24T07:58:34.750Z,796.82
2019-01-24T07:59:34.747Z,796.88
2019-01-24T08:00:34.746Z,796.90
2019-01-24T08:01:34.749Z,796.94
2019-01-24T08:02:34.749Z,796.92
2019-01-24T08:03:34.746Z,796.95
2019-01-24T08:04:34.754Z,796.90
2019-01-24T08:05:34.745Z,796.93
2019-01-24T08:06:34.751Z,796.92
2019-01-24T08:07:34.745Z,796.89
2019-01-24T08:08:34.748Z,796.89
2019-01-24T08:09:34.744Z,796.87
2019-01-24T08:10:34.746Z,796.89
2019-01-24T08:11:34.747Z,796.89
2019-01-24T08:12:34.744Z,796.88
2019-01-24T08:13:34.743Z,796.88
2019-01-24T08:14:34.745Z,796.93
2019-01-24T08:15:34.741Z,796.92
2019-01-24T08:16:34.742Z,796.94
2019-01-24T08:17:34.746Z,796.90
2019-01-24T08:18:34.740Z,796.91
2019-01-24T08:19:34.741Z,796.95
2019-01-24T08:20:34.744Z,796.98
2019-01-24T08:21:34.742Z,796.97
2019-01-24T08:22:34.740Z,797.03
2019-01-24T08:23:34.740Z,797.02
2019-01-24T08:24:34.740Z,797.01
2019-01-24T08:25:34.738Z,797.05
2019-01-24T08:26:34.738Z,797.08
2019-01-24T08:27:34.737Z,797.06
2019-01-24T08:28:34.734Z,797.10
2019-01-24T08:29:34.736Z,797.10
2019-01-24T08:30:34.734Z,797.08
2019-01-24T08:31:34.732Z,797.12
2019-01-24T08:32:34.735Z,797.14
2019-01-24T08:33:34.732Z,797.12
2019-01-24T08:34:34.735Z,797.09
2019-01-24T08:35:34.731Z,797.10
2019-01-24T08:36:34.730Z,797.11
2019-01-24T08:37:34.732Z,797.12
2019-01-24T08:38:34.732Z,797.15
2019-01-24T08:39:34.734Z,797.13
2019-01-24T08:40:34.730Z,797.14
2019-01-24T08:41:34.730Z,797.14
2019-01-24T08:42:34.730Z,797.17
2019-01-24T08:43:34.727Z,797.21
2019-01-24T08:44:34.730Z,797.20
2019-01-24T08:45:34.729Z,797.25
2019-01-24T08:46:34.729Z,797.26
2019-01-24T08:47:34.728Z,797.25
2019-01-24T08:48:34.729Z,797.29
2019-01-24T08:49:34.729Z,797.29
2019-01-24T08:50:34.730Z,797.29
2019-01-24T08:51:34.727Z,797.28
2019-01-24T08:52:34.728Z,797.29
2019-01-24T08:53:34.727Z,797.30
2019-01-24T08:54:34.725Z,797.30
2019-01-24T08:55:34.725Z,797.29
2019-01-24T08:56:34.729Z,797.31
2019-01-24T08:57:34.727Z,797.36
2019-01-24T08:58:34.726Z,797.35
2019-01-24T08:59:34.728Z,797.35
2019-01-24T09:00:34.726Z,797.41
2019-01-24T09:01:34.729Z,797.43
2019-01-24T09:02:34.725Z,797.41
2019-01-24T09:03:34.725Z,797.45
2019-01-24T09:04:34.724Z,797.45
2019-01-24T09:05:34.724Z,797.46
2019-01-24T09:06:34.725Z,797.43
2019-01-24T09:07:34.729Z,797.48
2019-01-24T09:08:34.726Z,797.51
2019-01-24T09:09:34.726Z,797.47
2019-01-24T09:10:34.723Z,797.50
2019-01-24T09:11:34.724Z,797.52
2019-01-24T09:12:34.725Z,797.56
2019-01-24T09:13:34.724Z,797.54
2019-01-24T09:14:34.725Z,797.56
2019-01-24T09:15:34.725Z,797.58
2019-01-24T09:16:34.726Z,797.62
2019-01-24T09:17:34.725Z,797.61
2019-01-24T09:18:34.727Z,797.60
2019-01-24T09:19:34.725Z,797.61
2019-01-24T09:20:34.726Z,797.68
2019-01-24T09:21:34.734Z,797.68
2019-01-24T09:22:34.727Z,797.65
2019-01-24T09:23:34.726Z,797.74
2019-01-24T09:24:34.723Z,797.72
2019-01-24T09:25:34.724Z,797.72
2019-01-24T09:26:34.727Z,797.71
2019-01-24T09:27:34.724Z,797.70
2019-01-24T09:28:34.727Z,797.69
2019-01-24T09:29:34.728Z,797.73
2019-01-24T09:30:34.731Z,797.73
2019-01-24T09:31:34.729Z,797.75
2019-01-24T09:32:34.730Z,797.74
2019-01-24T09:33:34.727Z,797.71
2019-01-24T09:34:34.733Z,797.69
2019-01-24T09:35:34.733Z,797.68
2019-01-24T09:36:34.733Z,797.72
2019-01-24T09:37:34.732Z,797.74
2019-01-24T09:38:34.736Z,797.77
2019-01-24T09:39:34.732Z,797.76
2019-01-24T09:40:34.737Z,797.83
2019-01-24T09:41:34.736Z,797.82
2019-01-24T09:42:34.736Z,797.85
2019-01-24T09:43:34.738Z,797.83
2019-01-24T09:44:34.737Z,797.85
2019-01-24T09:45:34.745Z,797.87
2019-01-24T09:46:34.741Z,797.90
2019-01-24T09:47:34.741Z,797.90
2019-01-24T09:48:34.743Z,797.84
2019-01-24T09:49:34.744Z,797.85
2019-01-24T09:50:34.744Z,797.87
2019-01-24T09:51:34.746Z,797.89
2019-01-24T09:52:34.747Z,797.93
2019-01-24T09:53:34.746Z,797.89
2019-01-24T09:54:34.748Z,797.93
2019-01-24T09:55:34.753Z,797.98
2019-01-24T09:56:34.750Z,797.95
2019-01-24T09:57:34.751Z,798.00
2019-01-24T09:58:34.754Z,798.01
2019-01-24T09:59:34.754Z,798.00
2019-01-24T10:00:34.753Z,798.04
2019-01-24T10:01:34.757Z,798.09
2019-01-24T10:02:34.757Z,798.06
2019-01-24T10:03:34.758Z,798.08
2019-01-24T10:04:34.759Z,798.07
2019-01-24T10:05:34.763Z,798.09
2019-01-24T10:06:36.421Z,798.11
2019-01-24T10:07:34.763Z,798.11
2019-01-24T10:08:34.766Z,798.17
2019-01-24T10:09:34.767Z,798.11
2019-01-24T10:10:34.767Z,798.18
2019-01-24T10:11:34.770Z,798.17
2019-01-24T10:12:34.772Z,798.21
2019-01-24T10:13:34.774Z,798.21
2019-01-24T10:14:34.775Z,798.21
2019-01-24T10:15:34.778Z,798.27
2019-01-24T10:16:34.780Z,798.24
2019-01-24T10:17:34.780Z,798.25
2019-01-24T10:18:34.784Z,798.24
2019-01-24T10:19:34.788Z,798.28
2019-01-24T10:20:34.799Z,798.28
2019-01-24T10:21:34.791Z,798.33
2019-01-24T10:22:34.791Z,798.30
2019-01-24T10:23:34.791Z,798.30
2019-01-24T10:24:34.793Z,798.37
2019-01-24T10:25:34.796Z,798.35
2019-01-24T10:26:34.801Z,798.35
2019-01-24T10:27:34.800Z,798.32
2019-01-24T10:28:34.803Z,798.35
2019-01-24T10:29:34.804Z,798.36
2019-01-24T10:30:34.805Z,798.39
2019-01-24T10:31:34.809Z,798.39
2019-01-24T10:32:34.810Z,798.40
2019-01-24T10:33:34.818Z,798.41
2019-01-24T10:34:34.816Z,798.42
2019-01-24T10:35:34.825Z,798.44
2019-01-24T10:36:34.828Z,798.40
2019-01-24T10:37:34.830Z,798.49
2019-01-24T10:38:34.827Z,798.43
2019-01-24T10:39:34.834Z,798.50
2019-01-24T10:40:34.839Z,798.50
2019-01-24T10:41:34.841Z,798.47
2019-01-24T10:42:34.845Z,798.42
2019-01-24T10:43:34.845Z,798.47
2019-01-24T10:44:34.848Z,798.49
2019-01-24T10:45:34.852Z,798.50
2019-01-24T10:46:34.852Z,798.51
2019-01-24T10:47:34.855Z,798.51
2019-01-24T10:48:34.858Z,798.49
2019-01-24T10:49:34.864Z,798.50
2019-01-24T10:50:35.305Z,798.51
2019-01-24T10:51:34.871Z,798.53
2019-01-24T10:52:34.875Z,798.55
2019-01-24T10:53:34.879Z,798.57
2019-01-24T10:54:34.886Z,798.57
2019-01-24T10:55:34.888Z,798.59
2019-01-24T10:56:35.303Z,798.62
2019-01-24T10:57:34.898Z,798.63
2019-01-24T10:58:34.903Z,798.58
2019-01-24T10:59:34.906Z,798.60
2019-01-24T11:00:34.909Z,798.64
2019-01-24T11:01:34.916Z,798.62
2019-01-24T11:02:34.923Z,798.65
2019-01-24T11:03:34.928Z,798.64
2019-01-24T11:04:34.933Z,798.66
2019-01-24T11:05:34.937Z,798.68
2019-01-24T11:06:34.941Z,798.66
2019-01-24T11:07:34.945Z,798.71
2019-01-24T11:08:34.949Z,798.70
2019-01-24T11:09:34.957Z,798.69
2019-01-24T11:10:34.962Z,798.70
2019-01-24T11:11:34.972Z,798.72
2019-01-24T11:12:34.975Z,798.79
2019-01-24T11:13:34.980Z,798.73
2019-01-24T11:14:34.985Z,798.69
2019-01-24T11:15:35.572Z,798.68
2019-01-24T11:16:35.036Z,798.68
2019-01-24T11:17:35.005Z,798.66
2019-01-24T11:18:35.011Z,798.74
2019-01-24T11:19:35.014Z,798.71
2019-01-24T11:20:35.024Z,798.68
2019-01-24T11:21:35.029Z,798.72
2019-01-24T11:22:35.037Z,798.68
2019-01-24T11:23:35.036Z,798.68
2019-01-24T11:24:35.046Z,798.71
2019-01-24T11:25:35.051Z,798.73
2019-01-24T11:26:35.056Z,798.68
2019-01-24T11:27:35.065Z,798.71
2019-01-24T11:28:35.069Z,798.66
2019-01-24T11:29:35.074Z,798.69
2019-01-24T11:30:35.079Z,798.61
2019-01-24T11:31:35.084Z,798.60
2019-01-24T11:32:35.092Z,798.65
2019-01-24T11:33:35.097Z,798.68
2019-01-24T11:34:35.104Z,798.65
2019-01-24T11:35:35.113Z,798.74
2019-01-24T11:36:35.115Z,798.73
2019-01-24T11:37:35.145Z,798.72
2019-01-24T11:38:35.131Z,798.72
2019-01-24T11:39:35.136Z,798.69
2019-01-24T11:40:35.147Z,798.61
2019-01-24T11:41:35.142Z,798.62
2019-01-24T11:42:35.153Z,798.57
2019-01-24T11:43:35.156Z,798.61
2019-01-24T11:44:36.131Z,798.67
2019-01-24T11:45:35.167Z,798.65
2019-01-24T11:46:35.174Z,798.66
2019-01-24T11:47:35.180Z,798.63
2019-01-24T11:48:35.183Z,798.56
2019-01-24T11:49:35.187Z,798.63
2019-01-24T11:50:35.195Z,798.60
2019-01-24T11:51:35.196Z,798.62
2019-01-24T11:52:35.202Z,798.62
2019-01-24T11:53:35.208Z,798.60
2019-01-24T11:54:35.211Z,798.61
2019-01-24T11:55:35.217Z,798.61
2019-01-24T11:56:35.223Z,798.66
2019-01-24T11:57:35.226Z,798.66
2019-01-24T11:58:35.231Z,798.66
2019-01-24T11:59:35.234Z,798.65
2019-01-24T12:00:35.239Z,798.68
2019-01-24T12:01:35.242Z,798.72
2019-01-24T12:02:39.735Z,798.65
2019-01-24T12:03:35.250Z,798.68
2019-01-24T12:04:35.260Z,798.63
2019-01-24T12:05:35.261Z,798.66
2019-01-24T12:06:35.265Z,798.64
2019-01-24T12:07:35.268Z,798.69
2019-01-24T12:08:35.277Z,798.66
2019-01-24T12:09:35.278Z,798.69
2019-01-24T12:10:35.285Z,798.73
2019-01-24T12:11:35.285Z,798.71
2019-01-24T12:12:35.292Z,798.71
2019-01-24T12:13:35.294Z,798.70
2019-01-24T12:14:35.298Z,798.69
2019-01-24T12:15:35.301Z,798.74
2019-01-24T12:16:35.308Z,798.75
2019-01-24T12:17:35.312Z,798.73
2019-01-24T12:18:35.317Z,798.82
2019-01-24T12:19:35.321Z,798.75
2019-01-24T12:20:35.321Z,798.67
2019-01-24T12:21:35.330Z,798.76
2019-01-24T12:22:35.333Z,798.78
2019-01-24T12:23:35.336Z,798.80
2019-01-24T12:24:35.343Z,798.80
2019-01-24T12:25:35.348Z,798.84
2019-01-24T12:26:35.363Z,798.85
2019-01-24T12:27:35.355Z,798.83
2019-01-24T12:28:35.361Z,798.86